createdAt,value
2022-10-02T00:00:16.593Z,86.81
2022-10-02T00:01:32.942Z,86.86
2022-10-02T00:02:41.326Z,87.04
2022-10-02T00:03:44.562Z,86.91
2022-10-02T00:04:55.181Z,87.09
2022-10-02T00:06:02.995Z,87.05
2022-10-02T00:07:07.974Z,87.23
2022-10-02T00:08:17.443Z,87.25
2022-10-02T00:09:39.901Z,87.02
2022-10-02T00:10:45.691Z,87.45
2022-10-02T00:11:51.201Z,87.25
2022-10-02T00:12:57.151Z,87.26
2022-10-02T00:14:04.532Z,87.58
2022-10-02T00:15:15.947Z,87.65
2022-10-02T00:16:26.947Z,87.80
2022-10-02T00:17:33.554Z,87.48
2022-10-02T00:18:39.175Z,87.80
2022-10-02T00:19:41.645Z,87.81
2022-10-02T00:20:53.940Z,87.75
2022-10-02T00:22:07.763Z,88.01
2022-10-02T00:23:16.117Z,88.18
2022-10-02T00:24:21.983Z,87.95
2022-10-02T00:25:28.976Z,88.08
2022-10-02T00:26:38.030Z,88.26
2022-10-02T00:27:46.826Z,88.33
2022-10-02T00:29:01.371Z,88.43
2022-10-02T00:30:05.839Z,88.61
2022-10-02T00:31:23.531Z,88.43
2022-10-02T00:32:31.404Z,88.41
2022-10-02T00:33:44.504Z,88.55
2022-10-02T00:35:17.058Z,88.72
2022-10-02T00:36:33.046Z,88.85
2022-10-02T00:37:43.927Z,88.69
2022-10-02T00:38:54.765Z,88.69
2022-10-02T00:40:04.369Z,88.75
2022-10-02T00:41:49.169Z,88.80
2022-10-02T00:43:04.320Z,88.75
2022-10-02T00:44:24.775Z,88.96
2022-10-02T00:45:41.652Z,88.91
2022-10-02T00:46:54.706Z,88.99
2022-10-02T00:48:05.993Z,89.09
2022-10-02T00:49:34.772Z,89.24
2022-10-02T00:50:44.311Z,89.17
2022-10-02T00:52:04.165Z,89.46
2022-10-02T00:53:14.636Z,88.99
2022-10-02T00:54:45.988Z,89.31
2022-10-02T00:55:59.002Z,89.23
2022-10-02T00:57:09.963Z,89.33
2022-10-02T00:58:36.589Z,89.22
2022-10-02T00:59:52.123Z,89.41
2022-10-02T01:01:02.587Z,89.24
2022-10-02T01:02:12.302Z,89.67
2022-10-02T01:03:18.211Z,89.52
2022-10-02T01:04:29.700Z,89.70
2022-10-02T01:05:32.751Z,89.75
2022-10-02T01:06:35.640Z,89.67
2022-10-02T01:07:41.997Z,89.93
2022-10-02T01:08:44.504Z,89.99
2022-10-02T01:09:46.248Z,89.68
2022-10-02T01:10:48.991Z,89.92
2022-10-02T01:11:51.205Z,89.75
2022-10-02T01:12:55.093Z,89.95
2022-10-02T01:13:57.035Z,90.01
2022-10-02T01:14:59.538Z,90.03
2022-10-02T01:16:01.629Z,89.90
2022-10-02T01:17:06.581Z,90.20
2022-10-02T01:18:13.185Z,90.10
2022-10-02T01:19:26.908Z,89.93
2022-10-02T01:20:33.296Z,90.02
2022-10-02T01:21:43.609Z,90.10
2022-10-02T01:22:52.628Z,90.37
2022-10-02T01:24:01.089Z,90.07
2022-10-02T01:25:06.534Z,90.47
2022-10-02T01:26:09.360Z,90.27
2022-10-02T01:27:10.948Z,90.39
2022-10-02T01:28:13.896Z,90.53
2022-10-02T01:29:15.545Z,90.50
2022-10-02T01:30:20.592Z,90.36
2022-10-02T01:31:24.789Z,90.53
2022-10-02T01:32:29.156Z,90.79
2022-10-02T01:33:32.829Z,90.67
2022-10-02T01:34:34.997Z,90.73
2022-10-02T01:35:40.125Z,90.60
2022-10-02T01:36:41.897Z,90.75
2022-10-02T01:37:45.907Z,90.80
2022-10-02T01:38:49.156Z,90.54
2022-10-02T01:39:52.311Z,90.79
2022-10-02T01:40:55.347Z,90.73
2022-10-02T01:41:58.018Z,90.89
2022-10-02T01:43:02.316Z,90.97
2022-10-02T01:44:04.865Z,91.04
2022-10-02T01:45:08.924Z,90.86
2022-10-02T01:46:32.250Z,91.20
2022-10-02T01:47:42.908Z,90.86
2022-10-02T01:48:48.159Z,91.10
2022-10-02T01:50:07.438Z,91.14
2022-10-02T01:51:48.738Z,91.08
2022-10-02T01:53:00.997Z,90.92
2022-10-02T01:54:18.546Z,91.18
2022-10-02T01:55:36.719Z,91.05
2022-10-02T01:56:48.429Z,91.25
2022-10-02T01:58:01.341Z,91.52
2022-10-02T01:59:11.655Z,91.37
2022-10-02T02:00:18.051Z,91.23
2022-10-02T02:01:30.988Z,91.39
2022-10-02T02:02:43.859Z,91.43
2022-10-02T02:03:53.148Z,91.38
2022-10-02T02:05:00.934Z,91.42
2022-10-02T02:06:09.108Z,91.71
2022-10-02T02:07:20.695Z,91.20
2022-10-02T02:08:28.808Z,91.24
2022-10-02T02:09:38.897Z,91.40
2022-10-02T02:10:47.044Z,91.48
2022-10-02T02:12:00.155Z,91.54
2022-10-02T02:13:08.314Z,91.49
2022-10-02T02:14:16.471Z,91.29
2022-10-02T02:15:25.771Z,91.42
2022-10-02T02:16:33.312Z,91.53
2022-10-02T02:17:46.312Z,91.57
2022-10-02T02:18:54.916Z,91.76
2022-10-02T02:20:01.842Z,91.71
2022-10-02T02:21:09.053Z,91.64
2022-10-02T02:22:18.445Z,91.54
2022-10-02T02:23:26.172Z,91.73
2022-10-02T02:24:36.070Z,91.64
2022-10-02T02:25:41.913Z,91.47
2022-10-02T02:26:45.198Z,91.57
2022-10-02T02:27:53.418Z,91.61
2022-10-02T02:28:57.492Z,91.57
2022-10-02T02:30:05.500Z,91.40
2022-10-02T02:31:13.216Z,91.68
2022-10-02T02:32:20.411Z,91.63
2022-10-02T02:33:26.675Z,91.71
2022-10-02T02:34:32.691Z,91.98
2022-10-02T02:35:40.412Z,91.68
2022-10-02T02:36:45.953Z,91.77
2022-10-02T02:37:51.821Z,91.65
2022-10-02T02:38:58.486Z,91.64
2022-10-02T02:40:06.026Z,91.55
2022-10-02T02:41:12.467Z,91.81
2022-10-02T02:42:18.499Z,91.80
2022-10-02T02:43:27.843Z,91.75
2022-10-02T02:44:36.010Z,91.85
2022-10-02T02:45:42.493Z,91.92
2022-10-02T02:47:06.593Z,91.79
2022-10-02T02:48:14.460Z,91.91
2022-10-02T02:49:16.308Z,92.00
2022-10-02T02:50:23.298Z,91.96
2022-10-02T02:51:30.998Z,91.93
2022-10-02T02:52:39.457Z,92.16
2022-10-02T02:53:47.021Z,92.07
2022-10-02T02:54:54.647Z,92.00
2022-10-02T02:56:00.759Z,91.86
2022-10-02T02:57:04.980Z,91.90
2022-10-02T02:58:15.951Z,91.88
2022-10-02T02:59:20.861Z,92.14
2022-10-02T03:00:25.533Z,92.14
2022-10-02T03:01:27.444Z,92.02
2022-10-02T03:02:30.159Z,91.83
2022-10-02T03:03:31.762Z,91.81
2022-10-02T03:04:34.836Z,91.94
2022-10-02T03:05:40.461Z,91.97
2022-10-02T03:06:45.193Z,91.91
2022-10-02T03:07:52.568Z,91.90
2022-10-02T03:08:55.568Z,92.16
2022-10-02T03:10:06.052Z,92.21
2022-10-02T03:11:21.440Z,91.98
2022-10-02T03:12:34.083Z,91.93
2022-10-02T03:13:57.221Z,91.91
2022-10-02T03:15:15.016Z,92.02
2022-10-02T03:16:28.500Z,91.76
2022-10-02T03:17:47.687Z,91.98
2022-10-02T03:19:02.948Z,92.07
2022-10-02T03:20:11.865Z,91.70
2022-10-02T03:21:19.709Z,91.84
2022-10-02T03:22:35.472Z,91.75
2022-10-02T03:23:49.987Z,91.87
2022-10-02T03:25:00.360Z,91.99
2022-10-02T03:26:09.323Z,91.86
2022-10-02T03:27:14.259Z,91.92
2022-10-02T03:28:43.629Z,91.71
2022-10-02T03:29:50.977Z,92.07
2022-10-02T03:30:55.634Z,91.90
2022-10-02T03:32:00.645Z,92.00
2022-10-02T03:33:03.918Z,91.90
2022-10-02T03:34:06.831Z,91.77
2022-10-02T03:35:11.728Z,91.80
2022-10-02T03:36:17.769Z,91.73
2022-10-02T03:37:21.437Z,91.61
2022-10-02T03:38:25.708Z,91.77
2022-10-02T03:39:27.524Z,91.42
2022-10-02T03:40:30.072Z,91.77
2022-10-02T03:41:31.572Z,91.69
2022-10-02T03:42:35.882Z,91.45
2022-10-02T03:43:38.590Z,91.32
2022-10-02T03:44:41.192Z,91.41
2022-10-02T03:45:51.737Z,91.13
2022-10-02T03:46:56.037Z,91.09
2022-10-02T03:47:57.620Z,91.25
2022-10-02T03:49:00.233Z,91.39
2022-10-02T03:50:01.740Z,91.33
2022-10-02T03:51:04.678Z,91.76
2022-10-02T03:52:06.288Z,91.74
2022-10-02T03:53:14.034Z,91.61
2022-10-02T03:54:17.688Z,91.66
2022-10-02T03:55:32.366Z,92.04
2022-10-02T03:56:40.562Z,91.78
2022-10-02T03:57:45.117Z,91.82
2022-10-02T03:58:51.586Z,91.89
2022-10-02T04:00:00.030Z,92.06
2022-10-02T04:01:05.690Z,91.85
2022-10-02T04:02:20.160Z,92.15
2022-10-02T04:03:25.165Z,91.93
2022-10-02T04:04:32.519Z,92.08
2022-10-02T04:05:40.222Z,92.17
2022-10-02T04:06:46.793Z,92.34
2022-10-02T04:07:53.036Z,92.32
2022-10-02T04:09:00.114Z,92.29
2022-10-02T04:10:17.107Z,92.20
2022-10-02T04:11:26.193Z,92.36
2022-10-02T04:12:33.000Z,92.19
2022-10-02T04:13:40.921Z,92.57
2022-10-02T04:14:49.310Z,92.51
2022-10-02T04:16:08.791Z,92.29
2022-10-02T04:17:15.758Z,92.37
2022-10-02T04:18:23.141Z,92.66
2022-10-02T04:19:29.341Z,92.71
2022-10-02T04:20:37.428Z,92.59
2022-10-02T04:21:44.086Z,92.43
2022-10-02T04:22:52.485Z,92.69
2022-10-02T04:23:59.506Z,92.86
2022-10-02T04:25:09.476Z,92.85
2022-10-02T04:26:16.935Z,92.92
2022-10-02T04:27:26.451Z,92.92
2022-10-02T04:28:35.223Z,92.82
2022-10-02T04:29:42.581Z,92.96
2022-10-02T04:30:44.130Z,93.08
2022-10-02T04:31:51.888Z,93.55
2022-10-02T04:32:56.899Z,93.46
2022-10-02T04:34:02.708Z,93.57
2022-10-02T04:35:12.378Z,93.48
2022-10-02T04:36:31.554Z,93.40
2022-10-02T04:37:52.560Z,93.43
2022-10-02T04:39:07.553Z,93.67
2022-10-02T04:40:36.690Z,93.96
2022-10-02T04:41:57.731Z,93.82
2022-10-02T04:43:15.088Z,93.94
2022-10-02T04:44:32.218Z,93.99
2022-10-02T04:45:52.371Z,94.03
2022-10-02T04:47:11.954Z,94.11
2022-10-02T04:48:40.256Z,94.07
2022-10-02T04:50:02.273Z,94.22
2022-10-02T04:51:15.023Z,94.13
2022-10-02T04:52:33.558Z,94.12
2022-10-02T04:53:50.434Z,94.19
2022-10-02T04:55:11.924Z,94.38
2022-10-02T04:56:34.836Z,94.21
2022-10-02T04:58:01.378Z,94.28
2022-10-02T04:59:17.902Z,94.44
2022-10-02T05:00:21.645Z,94.48
2022-10-02T05:01:32.589Z,94.39
2022-10-02T05:03:02.434Z,94.62
2022-10-02T05:04:25.481Z,94.66
2022-10-02T05:05:45.489Z,94.65
2022-10-02T05:07:04.316Z,94.78
2022-10-02T05:08:31.568Z,94.71
2022-10-02T05:09:42.444Z,94.75
2022-10-02T05:10:57.864Z,94.81
2022-10-02T05:12:30.208Z,94.89
2022-10-02T05:13:55.478Z,95.09
2022-10-02T05:15:13.126Z,94.80
2022-10-02T05:16:33.517Z,95.05
2022-10-02T05:17:47.272Z,95.18
2022-10-02T05:19:02.495Z,95.12
2022-10-02T05:20:22.959Z,95.13
2022-10-02T05:21:45.080Z,95.17
2022-10-02T05:23:03.378Z,95.08
2022-10-02T05:24:27.786Z,95.02
2022-10-02T05:26:14.201Z,95.34
2022-10-02T05:27:36.884Z,95.24
2022-10-02T05:28:53.415Z,95.58
2022-10-02T05:30:06.527Z,95.49
2022-10-02T05:31:21.399Z,95.44
2022-10-02T05:32:45.123Z,95.46
2022-10-02T05:34:02.955Z,95.69
2022-10-02T05:35:21.714Z,95.69
2022-10-02T05:37:06.530Z,95.71
2022-10-02T05:38:21.357Z,95.85
2022-10-02T05:39:28.998Z,95.71
2022-10-02T05:40:38.856Z,95.57
2022-10-02T05:41:51.429Z,95.45
2022-10-02T05:43:02.730Z,95.56
2022-10-02T05:44:12.628Z,95.53
2022-10-02T05:45:26.050Z,95.69
2022-10-02T05:46:34.184Z,95.81
2022-10-02T05:47:42.151Z,95.65
2022-10-02T05:48:48.866Z,95.73
2022-10-02T05:49:54.801Z,95.51
2022-10-02T05:51:03.630Z,95.79
2022-10-02T05:52:11.113Z,95.90
2022-10-02T05:53:22.975Z,95.92
2022-10-02T05:54:42.250Z,95.56
2022-10-02T05:55:49.397Z,95.71
2022-10-02T05:56:58.754Z,95.85
2022-10-02T05:58:06.335Z,95.77
2022-10-02T05:59:14.800Z,95.99
2022-10-02T06:00:28.331Z,95.88
2022-10-02T06:01:35.655Z,95.84
2022-10-02T06:02:41.974Z,96.06
2022-10-02T06:03:49.238Z,95.94
2022-10-02T06:05:00.086Z,95.97
2022-10-02T06:06:16.830Z,95.87
2022-10-02T06:07:20.763Z,96.01
2022-10-02T06:08:31.579Z,96.18
2022-10-02T06:09:39.838Z,96.09
2022-10-02T06:10:47.586Z,95.91
2022-10-02T06:11:56.100Z,96.25
2022-10-02T06:13:04.876Z,96.25
2022-10-02T06:14:20.217Z,96.33
2022-10-02T06:15:28.258Z,96.22
2022-10-02T06:16:37.158Z,96.11
2022-10-02T06:17:44.650Z,96.31
2022-10-02T06:18:52.033Z,96.29
2022-10-02T06:20:03.847Z,96.49
2022-10-02T06:21:11.651Z,96.48
2022-10-02T06:22:15.906Z,96.41
2022-10-02T06:23:23.271Z,96.38
2022-10-02T06:24:37.358Z,96.35
2022-10-02T06:25:44.752Z,96.27
2022-10-02T06:26:53.422Z,96.38
2022-10-02T06:28:01.732Z,96.37
2022-10-02T06:29:08.100Z,96.63
2022-10-02T06:30:13.957Z,96.49
2022-10-02T06:31:23.048Z,96.48
2022-10-02T06:32:34.928Z,96.49
2022-10-02T06:33:36.935Z,96.45
2022-10-02T06:34:39.435Z,96.58
2022-10-02T06:35:59.419Z,96.65
2022-10-02T06:37:36.331Z,96.75
2022-10-02T06:38:57.873Z,96.90
2022-10-02T06:40:20.639Z,96.65
2022-10-02T06:41:30.915Z,96.73
2022-10-02T06:42:44.573Z,96.84
2022-10-02T06:44:13.735Z,97.03
2022-10-02T06:45:29.155Z,97.03
2022-10-02T06:46:39.346Z,97.23
2022-10-02T06:47:59.043Z,96.87
2022-10-02T06:49:09.532Z,96.91
2022-10-02T06:50:35.089Z,97.16
2022-10-02T06:51:47.075Z,96.92
2022-10-02T06:52:58.972Z,96.88
2022-10-02T06:54:17.006Z,96.78
2022-10-02T06:55:36.955Z,96.98
2022-10-02T06:56:50.482Z,96.93
2022-10-02T06:58:09.740Z,97.17
2022-10-02T06:59:30.189Z,97.12
2022-10-02T07:00:36.701Z,97.00
2022-10-02T07:01:57.196Z,97.15
2022-10-02T07:03:35.979Z,97.15
2022-10-02T07:04:59.054Z,97.34
2022-10-02T07:06:27.054Z,97.19
2022-10-02T07:07:44.177Z,97.24
2022-10-02T07:09:14.813Z,97.24
2022-10-02T07:10:35.095Z,97.34
2022-10-02T07:11:46.643Z,97.46
2022-10-02T07:13:16.660Z,97.51
2022-10-02T07:14:30.663Z,97.49
2022-10-02T07:15:53.358Z,97.51
2022-10-02T07:17:22.070Z,97.25
2022-10-02T07:18:34.557Z,97.34
2022-10-02T07:19:53.649Z,97.25
2022-10-02T07:21:07.974Z,97.22
2022-10-02T07:22:43.803Z,97.38
2022-10-02T07:23:56.752Z,97.57
2022-10-02T07:25:20.520Z,97.49
2022-10-02T07:26:42.504Z,97.42
2022-10-02T07:27:57.045Z,97.47
2022-10-02T07:29:09.888Z,97.43
2022-10-02T07:30:14.879Z,97.51
2022-10-02T07:31:26.092Z,97.93
2022-10-02T07:32:48.519Z,97.76
2022-10-02T07:34:06.554Z,97.74
2022-10-02T07:35:32.797Z,97.59
2022-10-02T07:36:47.619Z,97.49
2022-10-02T07:38:02.397Z,97.92
2022-10-02T07:39:17.150Z,97.70
2022-10-02T07:40:35.641Z,97.61
2022-10-02T07:41:52.108Z,97.85
2022-10-02T07:43:06.990Z,97.79
2022-10-02T07:44:35.857Z,97.49
2022-10-02T07:45:41.853Z,97.73
2022-10-02T07:46:56.067Z,97.59
2022-10-02T07:48:37.638Z,97.43
2022-10-02T07:49:51.478Z,97.75
2022-10-02T07:51:30.989Z,97.74
2022-10-02T07:52:44.926Z,97.62
2022-10-02T07:53:51.549Z,97.89
2022-10-02T07:55:11.971Z,97.59
2022-10-02T07:56:20.028Z,97.74
2022-10-02T07:57:30.165Z,97.85
2022-10-02T07:58:39.248Z,97.75
2022-10-02T07:59:43.639Z,97.58
2022-10-02T08:00:52.743Z,97.55
2022-10-02T08:01:56.036Z,97.62
2022-10-02T08:03:01.955Z,97.62
2022-10-02T08:04:12.687Z,97.91
2022-10-02T08:05:20.244Z,97.69
2022-10-02T08:06:22.078Z,97.83
2022-10-02T08:07:24.846Z,97.61
2022-10-02T08:08:32.133Z,97.73
2022-10-02T08:09:39.070Z,97.68
2022-10-02T08:10:48.394Z,97.57
2022-10-02T08:11:56.134Z,97.66
2022-10-02T08:13:05.939Z,97.60
2022-10-02T08:14:13.272Z,97.65
2022-10-02T08:15:20.790Z,97.61
2022-10-02T08:16:28.110Z,97.68
2022-10-02T08:17:35.948Z,97.72
2022-10-02T08:18:43.079Z,97.32
2022-10-02T08:19:49.603Z,97.52
2022-10-02T08:20:52.501Z,97.58
2022-10-02T08:22:01.662Z,97.63
2022-10-02T08:23:09.920Z,97.50
2022-10-02T08:24:16.910Z,97.38
2022-10-02T08:25:25.141Z,97.29
2022-10-02T08:26:35.407Z,97.08
2022-10-02T08:27:50.076Z,97.05
2022-10-02T08:29:01.151Z,97.20
2022-10-02T08:30:06.711Z,96.93
2022-10-02T08:31:12.059Z,97.00
2022-10-02T08:32:13.908Z,96.91
2022-10-02T08:33:19.834Z,96.86
2022-10-02T08:34:23.137Z,96.81
2022-10-02T08:35:40.191Z,96.69
2022-10-02T08:37:05.524Z,96.68
2022-10-02T08:38:19.829Z,96.53
2022-10-02T08:39:39.486Z,96.33
2022-10-02T08:41:28.891Z,96.27
2022-10-02T08:43:17.105Z,96.26
2022-10-02T08:45:03.945Z,95.93
2022-10-02T08:46:26.135Z,96.05
2022-10-02T08:48:05.278Z,96.20
2022-10-02T08:49:33.627Z,95.96
2022-10-02T08:51:02.545Z,95.95
2022-10-02T08:52:27.056Z,95.79
2022-10-02T08:53:48.884Z,95.67
2022-10-02T08:55:31.600Z,95.95
2022-10-02T08:56:48.632Z,95.80
2022-10-02T08:58:17.127Z,95.84
2022-10-02T09:00:04.959Z,95.44
2022-10-02T09:01:31.369Z,95.56
2022-10-02T09:03:00.477Z,95.58
2022-10-02T09:04:41.479Z,95.38
2022-10-02T09:06:19.591Z,95.59
2022-10-02T09:07:56.821Z,95.26
2022-10-02T09:09:38.014Z,95.54
2022-10-02T09:11:20.695Z,95.22
2022-10-02T09:13:03.779Z,95.17
2022-10-02T09:14:20.320Z,94.90
2022-10-02T09:15:42.796Z,94.66
2022-10-02T09:17:15.840Z,94.77
2022-10-02T09:18:35.081Z,94.66
2022-10-02T09:19:54.428Z,94.60
2022-10-02T09:21:17.220Z,94.24
2022-10-02T09:22:46.370Z,94.33
2022-10-02T09:24:43.160Z,94.28
2022-10-02T09:25:56.517Z,93.96
2022-10-02T09:27:23.853Z,93.66
2022-10-02T09:28:54.426Z,93.80
2022-10-02T09:30:26.880Z,93.49
2022-10-02T09:32:04.208Z,93.32
2022-10-02T09:33:31.710Z,93.14
2022-10-02T09:35:01.961Z,92.80
2022-10-02T09:36:49.213Z,92.61
2022-10-02T09:38:29.964Z,92.75
2022-10-02T09:40:02.682Z,92.60
2022-10-02T09:41:48.076Z,92.25
2022-10-02T09:43:23.871Z,92.20
2022-10-02T09:45:01.411Z,92.06
2022-10-02T09:46:48.040Z,91.94
2022-10-02T09:48:16.795Z,91.88
2022-10-02T09:50:05.800Z,91.74
2022-10-02T09:51:53.024Z,91.41
2022-10-02T09:53:22.935Z,91.31
2022-10-02T09:55:17.040Z,91.07
2022-10-02T09:56:44.463Z,90.86
2022-10-02T09:58:15.303Z,90.69
2022-10-02T09:59:41.919Z,90.74
2022-10-02T10:01:06.836Z,90.45
2022-10-02T10:02:33.259Z,90.46
2022-10-02T10:03:59.768Z,90.45
2022-10-02T10:05:33.563Z,90.22
2022-10-02T10:07:18.417Z,89.97
2022-10-02T10:09:03.273Z,90.03
2022-10-02T10:10:42.270Z,89.58
2022-10-02T10:12:19.641Z,89.67
2022-10-02T10:13:42.036Z,89.55
2022-10-02T10:15:12.616Z,89.42
2022-10-02T10:17:05.658Z,89.55
2022-10-02T10:18:39.339Z,89.10
2022-10-02T10:20:08.848Z,88.99
2022-10-02T10:21:47.542Z,88.80
2022-10-02T10:23:08.370Z,88.55
2022-10-02T10:24:55.778Z,88.25
2022-10-02T10:26:34.592Z,87.94
2022-10-02T10:28:10.638Z,87.89
2022-10-02T10:29:53.869Z,87.63
2022-10-02T10:31:23.918Z,87.46
2022-10-02T10:32:53.933Z,87.00
2022-10-02T10:34:28.895Z,87.08
2022-10-02T10:36:02.275Z,86.67
2022-10-02T10:37:24.869Z,86.51
2022-10-02T10:38:40.103Z,86.39
2022-10-02T10:40:06.673Z,85.97
2022-10-02T10:41:51.271Z,85.84
2022-10-02T10:43:42.347Z,85.72
2022-10-02T10:45:22.579Z,85.71
2022-10-02T10:46:47.547Z,85.77
2022-10-02T10:48:07.583Z,85.56
2022-10-02T10:49:35.208Z,85.44
2022-10-02T10:50:55.134Z,85.31
2022-10-02T10:52:13.831Z,85.14
2022-10-02T10:53:50.390Z,85.05
2022-10-02T10:54:58.899Z,85.11
2022-10-02T10:56:33.275Z,84.98
2022-10-02T10:57:51.870Z,84.79
2022-10-02T10:59:16.569Z,84.69
2022-10-02T11:00:20.743Z,84.54
2022-10-02T11:01:36.994Z,84.42
2022-10-02T11:02:54.488Z,84.27
2022-10-02T11:04:31.519Z,83.96
2022-10-02T11:06:11.267Z,83.93
2022-10-02T11:07:39.248Z,83.73
2022-10-02T11:09:14.022Z,83.57
2022-10-02T11:10:33.455Z,83.56
2022-10-02T11:11:50.524Z,83.22
2022-10-02T11:13:28.072Z,83.14
2022-10-02T11:14:43.831Z,82.78
2022-10-02T11:16:11.224Z,82.32
2022-10-02T11:17:56.321Z,82.49
2022-10-02T11:19:35.049Z,82.21
2022-10-02T11:21:04.335Z,81.78
2022-10-02T11:22:38.984Z,81.59
2022-10-02T11:24:01.909Z,81.41
2022-10-02T11:25:28.446Z,81.15
2022-10-02T11:26:48.817Z,80.84
2022-10-02T11:28:18.698Z,80.74
2022-10-02T11:29:49.293Z,80.40
2022-10-02T11:31:07.159Z,80.14
2022-10-02T11:32:51.553Z,80.10
2022-10-02T11:34:27.957Z,79.85
2022-10-02T11:35:49.000Z,79.48
2022-10-02T11:37:01.984Z,79.01
2022-10-02T11:38:32.482Z,78.49
2022-10-02T11:40:13.223Z,78.27
2022-10-02T11:41:47.337Z,78.16
2022-10-02T11:43:11.220Z,77.60
2022-10-02T11:44:25.341Z,77.48
2022-10-02T11:45:55.135Z,76.98
2022-10-02T11:47:18.445Z,76.73
2022-10-02T11:48:46.976Z,76.43
2022-10-02T11:50:29.049Z,76.35
2022-10-02T11:51:48.549Z,76.39
2022-10-02T11:53:16.857Z,76.06
2022-10-02T11:54:45.439Z,76.05
2022-10-02T11:55:59.918Z,75.63
2022-10-02T11:57:22.039Z,75.65
2022-10-02T11:58:41.889Z,75.54
2022-10-02T12:00:00.446Z,75.36
2022-10-02T12:01:17.257Z,75.17
2022-10-02T12:02:26.541Z,75.05
2022-10-02T12:03:48.665Z,75.11
2022-10-02T12:05:05.880Z,74.95
2022-10-02T12:06:16.259Z,74.29
2022-10-02T12:07:34.921Z,74.44
2022-10-02T12:08:50.202Z,74.07
2022-10-02T12:10:11.475Z,74.07
2022-10-02T12:11:22.388Z,73.81
2022-10-02T12:12:41.928Z,73.79
2022-10-02T12:14:01.057Z,73.64
2022-10-02T12:15:14.063Z,73.11
2022-10-02T12:16:28.482Z,72.95
2022-10-02T12:17:54.098Z,72.88
2022-10-02T12:19:15.873Z,72.26
2022-10-02T12:20:45.929Z,72.03
2022-10-02T12:22:16.721Z,71.86
2022-10-02T12:23:49.028Z,72.12
2022-10-02T12:25:21.962Z,71.36
2022-10-02T12:27:03.707Z,71.00
2022-10-02T12:28:14.343Z,71.31
2022-10-02T12:29:25.079Z,70.93
2022-10-02T12:30:32.933Z,70.46
2022-10-02T12:31:45.443Z,70.57
2022-10-02T12:32:59.930Z,70.26
2022-10-02T12:34:14.017Z,70.41
2022-10-02T12:35:32.418Z,70.22
2022-10-02T12:36:58.117Z,69.93
2022-10-02T12:38:15.269Z,69.85
2022-10-02T12:39:36.028Z,69.39
2022-10-02T12:40:46.606Z,69.48
2022-10-02T12:42:07.561Z,69.03
2022-10-02T12:43:40.347Z,68.94
2022-10-02T12:45:11.986Z,68.89
2022-10-02T12:46:29.709Z,68.64
2022-10-02T12:48:07.100Z,68.28
2022-10-02T12:49:21.709Z,68.68
2022-10-02T12:50:40.559Z,68.48
2022-10-02T12:52:03.080Z,68.06
2022-10-02T12:53:36.775Z,67.79
2022-10-02T12:55:14.850Z,68.29
2022-10-02T12:56:51.933Z,68.21
2022-10-02T12:58:05.964Z,68.02
2022-10-02T12:59:16.102Z,68.07
2022-10-02T13:00:19.644Z,67.93
2022-10-02T13:01:52.331Z,67.62
2022-10-02T13:03:50.397Z,67.83
2022-10-02T13:05:22.957Z,67.62
2022-10-02T13:06:52.085Z,67.44
2022-10-02T13:08:18.201Z,67.17
2022-10-02T13:09:45.693Z,67.45
2022-10-02T13:11:01.166Z,66.81
2022-10-02T13:12:21.842Z,67.10
2022-10-02T13:13:50.974Z,66.80
2022-10-02T13:15:22.259Z,66.27
2022-10-02T13:16:35.244Z,66.58
2022-10-02T13:17:45.310Z,66.13
2022-10-02T13:19:03.222Z,66.63
2022-10-02T13:20:19.452Z,66.33
2022-10-02T13:21:27.591Z,65.62
2022-10-02T13:22:38.880Z,65.82
2022-10-02T13:23:47.618Z,65.17
2022-10-02T13:25:17.432Z,65.21
2022-10-02T13:26:34.079Z,64.81
2022-10-02T13:27:44.255Z,64.95
2022-10-02T13:29:08.323Z,65.05
2022-10-02T13:30:16.098Z,65.03
2022-10-02T13:31:36.425Z,64.71
2022-10-02T13:32:55.238Z,64.91
2022-10-02T13:34:14.172Z,65.13
2022-10-02T13:35:32.277Z,65.06
2022-10-02T13:36:49.415Z,65.02
2022-10-02T13:38:07.623Z,64.95
2022-10-02T13:39:21.795Z,64.61
2022-10-02T13:40:30.994Z,64.45
2022-10-02T13:41:44.482Z,64.57
2022-10-02T13:43:05.911Z,64.39
2022-10-02T13:44:20.024Z,64.45
2022-10-02T13:45:29.382Z,64.43
2022-10-02T13:46:45.647Z,64.37
2022-10-02T13:48:00.637Z,63.66
2022-10-02T13:49:12.439Z,63.27
2022-10-02T13:50:29.813Z,63.81
2022-10-02T13:51:39.944Z,63.28
2022-10-02T13:52:53.517Z,63.45
2022-10-02T13:54:20.611Z,63.23
2022-10-02T13:55:26.560Z,63.53
2022-10-02T13:56:43.163Z,63.38
2022-10-02T13:58:00.906Z,63.48
2022-10-02T13:59:20.884Z,63.85
2022-10-02T14:00:39.108Z,63.63
2022-10-02T14:01:52.519Z,63.75
2022-10-02T14:03:07.190Z,63.94
2022-10-02T14:04:27.284Z,63.83
2022-10-02T14:05:38.125Z,64.16
2022-10-02T14:06:44.623Z,64.46
2022-10-02T14:08:01.401Z,64.05
2022-10-02T14:09:12.214Z,64.64
2022-10-02T14:10:25.660Z,64.52
2022-10-02T14:11:40.584Z,64.79
2022-10-02T14:12:59.453Z,64.94
2022-10-02T14:14:17.605Z,65.04
2022-10-02T14:15:38.004Z,64.76
2022-10-02T14:16:55.233Z,65.25
2022-10-02T14:18:29.016Z,65.33
2022-10-02T14:20:00.014Z,65.78
2022-10-02T14:21:14.627Z,65.62
2022-10-02T14:22:33.982Z,65.58
2022-10-02T14:23:56.255Z,65.70
2022-10-02T14:25:30.692Z,65.84
2022-10-02T14:26:49.779Z,65.76
2022-10-02T14:28:23.137Z,65.66
2022-10-02T14:29:38.828Z,65.98
2022-10-02T14:30:57.936Z,65.86
2022-10-02T14:32:28.196Z,65.81
2022-10-02T14:33:49.202Z,66.01
2022-10-02T14:34:59.845Z,66.21
2022-10-02T14:36:08.265Z,66.34
2022-10-02T14:37:41.482Z,65.99
2022-10-02T14:39:01.072Z,66.21
2022-10-02T14:40:12.931Z,65.91
2022-10-02T14:41:49.147Z,65.87
2022-10-02T14:43:15.313Z,65.98
2022-10-02T14:44:44.302Z,65.76
2022-10-02T14:46:13.944Z,65.54
2022-10-02T14:47:35.296Z,65.87
2022-10-02T14:49:01.531Z,65.63
2022-10-02T14:50:20.832Z,65.78
2022-10-02T14:51:39.964Z,65.53
2022-10-02T14:52:56.439Z,65.81
2022-10-02T14:54:20.710Z,65.81
2022-10-02T14:55:41.520Z,65.58
2022-10-02T14:57:21.160Z,65.85
2022-10-02T14:58:39.703Z,66.00
2022-10-02T15:00:00.737Z,66.16
2022-10-02T15:01:24.154Z,66.12
2022-10-02T15:03:03.778Z,66.49
2022-10-02T15:04:27.780Z,66.46
2022-10-02T15:05:45.411Z,66.50
2022-10-02T15:06:59.781Z,66.75
2022-10-02T15:08:06.549Z,66.80
2022-10-02T15:09:16.073Z,66.86
2022-10-02T15:10:23.038Z,67.01
2022-10-02T15:12:01.915Z,66.76
2022-10-02T15:13:10.295Z,66.89
2022-10-02T15:14:20.659Z,67.10
2022-10-02T15:15:28.223Z,67.10
2022-10-02T15:17:01.006Z,67.16
2022-10-02T15:18:21.005Z,66.96
2022-10-02T15:19:31.402Z,67.27
2022-10-02T15:20:40.442Z,67.17
2022-10-02T15:21:51.624Z,67.17
2022-10-02T15:22:59.909Z,67.25
2022-10-02T15:24:28.201Z,66.88
2022-10-02T15:25:50.861Z,67.09
2022-10-02T15:27:01.438Z,66.94
2022-10-02T15:28:34.542Z,66.75
2022-10-02T15:29:46.255Z,66.62
2022-10-02T15:30:56.391Z,66.35
2022-10-02T15:32:20.103Z,66.42
2022-10-02T15:33:32.624Z,66.54
2022-10-02T15:34:46.363Z,66.35
2022-10-02T15:36:02.611Z,66.47
2022-10-02T15:37:18.613Z,66.14
2022-10-02T15:38:43.004Z,66.34
2022-10-02T15:40:05.101Z,66.14
2022-10-02T15:41:38.671Z,66.14
2022-10-02T15:42:50.050Z,66.22
2022-10-02T15:44:06.571Z,66.04
2022-10-02T15:45:22.684Z,66.09
2022-10-02T15:46:32.123Z,65.93
2022-10-02T15:47:49.132Z,65.71
2022-10-02T15:48:59.948Z,65.76
2022-10-02T15:50:18.324Z,65.70
2022-10-02T15:51:43.711Z,65.17
2022-10-02T15:52:54.013Z,65.83
2022-10-02T15:54:09.722Z,65.72
2022-10-02T15:55:20.307Z,65.52
2022-10-02T15:56:43.763Z,65.46
2022-10-02T15:58:03.104Z,65.49
2022-10-02T15:59:31.843Z,65.64
2022-10-02T16:01:00.621Z,65.50
2022-10-02T16:02:18.112Z,65.54
2022-10-02T16:03:27.889Z,65.40
2022-10-02T16:04:39.221Z,65.50
2022-10-02T16:05:52.233Z,65.25
2022-10-02T16:07:46.736Z,65.66
2022-10-02T16:09:20.841Z,65.77
2022-10-02T16:10:26.649Z,65.70
2022-10-02T16:12:00.551Z,65.67
2022-10-02T16:13:34.191Z,66.00
2022-10-02T16:14:49.589Z,65.89
2022-10-02T16:15:52.821Z,65.88
2022-10-02T16:17:23.969Z,66.17
2022-10-02T16:18:55.301Z,66.01
2022-10-02T16:20:43.194Z,66.05
2022-10-02T16:22:12.241Z,66.62
2022-10-02T16:23:32.659Z,66.71
2022-10-02T16:24:55.527Z,66.54
2022-10-02T16:26:16.599Z,66.95
2022-10-02T16:27:27.548Z,66.81
2022-10-02T16:28:45.073Z,67.03
2022-10-02T16:30:03.006Z,67.29
2022-10-02T16:31:25.642Z,67.34